Time;durP1;ratioP1;P1;durP2;ratioP2;P2;SDS_P1;SDS_P2;PMS_P1;PMS_P2;Temp;Humidity;BMP_temperature;BMP_pressure;BME280_temperature;BME280_humidity;BME280_pressure;Samples;Min_cycle;Max_cycle;Signal;HPM_P1;HPM_P2
2021/09/14 04:37:16;;;;;;;11.93;8.75;;;;;;;12.61;73.48;100348.00;5005400;28;105883;-68
2021/09/14 04:39:41;;;;;;;15.93;9.90;;;;;;;12.66;74.28;100352.81;5006206;28;105952;-68
2021/09/14 04:42:07;;;;;;;14.00;9.00;;;;;;;12.75;75.09;100357.06;5005362;28;106266;-67
2021/09/14 04:44:32;;;;;;;13.32;8.23;;;;;;;12.85;74.97;100354.97;5005344;28;105833;-68
2021/09/14 04:46:57;;;;;;;18.10;8.18;;;;;;;12.98;75.27;100361.53;5005016;28;106063;-69
2021/09/14 04:49:23;;;;;;;12.65;8.32;;;;;;;13.09;75.37;100361.09;5004962;28;106358;-68
2021/09/14 04:51:48;;;;;;;12.52;8.90;;;;;;;13.20;75.40;100357.13;5004751;28;106156;-68
2021/09/14 04:54:13;;;;;;;10.02;8.15;;;;;;;13.31;75.27;100353.19;5004754;28;108769;-68
2021/09/14 04:56:39;;;;;;;14.23;8.68;;;;;;;13.40;75.44;100359.31;5004741;28;106019;-68
2021/09/14 04:59:04;;;;;;;14.00;8.20;;;;;;;13.49;75.14;100361.72;5005517;28;105962;-68
2021/09/14 05:01:29;;;;;;;10.57;7.38;;;;;;;13.57;75.47;100357.28;5004899;28;106185;-67
2021/09/14 05:03:55;;;;;;;13.98;8.45;;;;;;;13.66;75.50;100359.66;5004347;28;108070;-69
2021/09/14 05:06:20;;;;;;;11.20;7.75;;;;;;;13.76;75.31;100364.72;5002626;28;105907;-69
2021/09/14 05:08:45;;;;;;;10.75;7.85;;;;;;;13.87;75.44;100363.41;5004926;28;106252;-68
2021/09/14 05:11:13;;;;;;;10.68;7.60;;;;;;;13.97;75.31;100363.09;5004638;28;106186;-67
2021/09/14 05:13:39;;;;;;;10.45;7.97;;;;;;;14.05;75.29;100363.84;4997946;28;107874;-68
2021/09/14 05:16:04;;;;;;;12.35;7.82;;;;;;;14.15;75.58;100355.50;4988405;28;106160;-66
2021/09/14 05:18:30;;;;;;;14.10;7.63;;;;;;;14.28;75.46;100364.69;5005771;28;105967;-65
2021/09/14 05:20:57;;;;;;;12.43;7.97;;;;;;;14.39;75.48;100362.34;4993091;28;105983;-67
2021/09/14 05:23:32;;;;;;;10.50;7.75;;;;;;;14.51;75.52;100348.44;4984726;28;106034;-67
2021/09/14 05:26:00;;;;;;;10.50;7.30;;;;;;;14.61;75.23;100350.78;4987864;28;106063;-68
2021/09/14 05:28:25;;;;;;;10.85;8.18;;;;;;;14.69;74.99;100356.03;5004991;28;105838;-67
2021/09/14 05:30:51;;;;;;;13.85;7.53;;;;;;;14.76;75.01;100351.53;5005148;28;106229;-67
2021/09/14 05:33:17;;;;;;;10.27;7.43;;;;;;;14.85;74.69;100357.63;5004398;28;105966;-67
2021/09/14 05:35:50;;;;;;;10.80;7.13;;;;;;;14.94;74.70;100359.13;5003874;28;106317;-67
2021/09/14 05:38:18;;;;;;;8.45;7.07;;;;;;;15.07;74.62;100363.75;5004866;28;106018;-68
2021/09/14 05:40:44;;;;;;;9.48;7.57;;;;;;;15.16;74.37;100359.91;5004288;28;106166;-67
2021/09/14 05:43:09;;;;;;;14.15;9.73;;;;;;;15.25;74.35;100365.13;5004145;28;106316;-67
2021/09/14 05:45:35;;;;;;;18.58;13.02;;;;;;;15.36;74.30;100362.72;5003797;28;106040;-68
2021/09/14 05:48:01;;;;;;;11.48;8.45;;;;;;;15.49;74.27;100364.66;4994241;28;106044;-66
2021/09/14 05:50:27;;;;;;;13.10;7.75;;;;;;;15.59;73.96;100361.59;4990906;28;106196;-67
2021/09/14 05:52:52;;;;;;;20.35;12.63;;;;;;;15.73;74.13;100357.94;4990526;28;105814;-67
2021/09/14 05:55:18;;;;;;;16.50;8.32;;;;;;;15.87;73.53;100349.97;4989668;28;106283;-68
2021/09/14 05:57:43;;;;;;;16.08;7.63;;;;;;;16.03;73.66;100348.78;4991441;28;106193;-69
2021/09/14 06:00:10;;;;;;;8.02;6.90;;;;;;;16.18;73.48;100349.47;4991133;28;105956;-66
2021/09/14 06:02:35;;;;;;;9.50;6.60;;;;;;;16.31;73.05;100354.03;4990134;28;109602;-68
2021/09/14 06:05:01;;;;;;;9.40;6.78;;;;;;;16.46;72.89;100361.06;4989859;28;106015;-68
2021/09/14 06:07:26;;;;;;;11.02;6.20;;;;;;;16.60;73.12;100362.75;4991049;28;106164;-69
2021/09/14 06:09:51;;;;;;;9.98;7.28;;;;;;;16.72;72.77;100357.59;4990536;28;105871;-68
2021/09/14 06:12:17;;;;;;;12.43;6.85;;;;;;;16.84;72.28;100364.00;4989913;28;105984;-67
2021/09/14 06:14:42;;;;;;;9.15;6.40;;;;;;;16.99;72.14;100365.66;4990308;28;106128;-67
2021/09/14 06:17:07;;;;;;;10.43;6.63;;;;;;;17.00;71.00;100372.69;4991023;28;105965;-68
2021/09/14 06:19:33;;;;;;;15.55;5.97;;;;;;;17.03;71.12;100366.91;4990844;28;106199;-66
2021/09/14 06:21:58;;;;;;;8.30;6.07;;;;;;;17.24;71.49;100379.31;4990325;28;106762;-66
2021/09/14 06:24:24;;;;;;;8.63;6.15;;;;;;;17.49;71.40;100371.38;4990252;28;106097;-66
2021/09/14 06:26:49;;;;;;;8.23;5.80;;;;;;;17.70;71.12;100367.59;4991496;28;105806;-67
2021/09/14 06:29:14;;;;;;;7.57;5.40;;;;;;;17.97;70.80;100366.66;4990729;28;106295;-69
2021/09/14 06:31:40;;;;;;;8.77;5.10;;;;;;;18.27;70.20;100380.41;4990509;28;105804;-67
2021/09/14 06:34:05;;;;;;;8.95;5.90;;;;;;;18.54;69.87;100381.06;4990240;28;105971;-67
2021/09/14 06:36:30;;;;;;;8.80;4.90;;;;;;;18.79;69.40;100374.84;4990174;28;106341;-67
2021/09/14 06:38:56;;;;;;;9.10;5.35;;;;;;;19.00;68.57;100376.38;4990638;28;106151;-68
2021/09/14 06:41:22;;;;;;;7.82;5.45;;;;;;;19.11;67.78;100374.84;4990262;28;105989;-67
2021/09/14 06:43:47;;;;;;;10.02;6.13;;;;;;;19.21;67.12;100379.72;4990099;28;105952;-68
2021/09/14 06:46:13;;;;;;;9.55;4.97;;;;;;;19.37;66.93;100376.44;4990828;28;106425;-67
2021/09/14 06:48:38;;;;;;;7.00;5.13;;;;;;;19.60;66.89;100386.56;4990593;28;106291;-66
2021/09/14 06:51:04;;;;;;;9.32;5.95;;;;;;;19.87;66.68;100386.28;4989829;28;106104;-65
2021/09/14 06:53:30;;;;;;;7.78;5.82;;;;;;;20.14;65.81;100385.13;4989934;28;106150;-66
2021/09/14 06:55:56;;;;;;;9.32;5.47;;;;;;;20.31;65.05;100386.09;4990088;28;106105;-65
2021/09/14 06:58:21;;;;;;;7.82;5.35;;;;;;;20.58;65.00;100393.84;4988973;28;106237;-64
2021/09/14 07:00:47;;;;;;;6.82;4.65;;;;;;;20.96;64.54;100388.03;4988219;28;106195;-66
2021/09/14 07:03:12;;;;;;;9.90;6.15;;;;;;;21.26;63.80;100387.09;4989748;28;106528;-67
2021/09/14 07:05:39;;;;;;;9.50;5.22;;;;;;;21.60;62.94;100387.34;4990298;28;106387;-66
2021/09/14 07:08:04;;;;;;;9.38;5.43;;;;;;;21.88;61.86;100385.72;4989493;28;106251;-66
2021/09/14 07:10:30;;;;;;;8.55;5.28;;;;;;;22.08;60.84;100388.03;4989477;28;105767;-66
2021/09/14 07:12:55;;;;;;;9.23;5.47;;;;;;;22.32;61.04;100387.91;4987549;28;106255;-65
2021/09/14 07:15:21;;;;;;;8.40;5.07;;;;;;;22.43;59.27;100388.94;4990410;28;106011;-65
2021/09/14 07:17:46;;;;;;;7.20;5.32;;;;;;;22.30;58.65;100396.28;4989696;28;106245;-67
2021/09/14 07:20:12;;;;;;;13.30;7.72;;;;;;;22.25;58.41;100396.22;4989173;28;105868;-64
2021/09/14 07:22:38;;;;;;;7.75;6.10;;;;;;;22.38;58.72;100395.13;4988703;28;106375;-64
2021/09/14 07:25:04;;;;;;;8.90;5.07;;;;;;;22.64;58.32;100401.00;4990117;28;106162;-63
2021/09/14 07:27:29;;;;;;;8.35;5.50;;;;;;;22.89;57.54;100399.78;4989569;28;106338;-63
2021/09/14 07:29:54;;;;;;;15.05;9.52;;;;;;;23.08;57.04;100394.91;4989470;28;106799;-63
2021/09/14 07:32:20;;;;;;;10.15;5.00;;;;;;;23.13;56.30;100403.19;4988965;28;106019;-64
2021/09/14 07:34:45;;;;;;;5.68;4.47;;;;;;;23.21;55.84;100405.47;4989813;28;105895;-62
2021/09/14 07:37:11;;;;;;;13.35;4.60;;;;;;;23.26;55.22;100407.44;4988914;28;106320;-65
2021/09/14 07:39:36;;;;;;;6.80;5.03;;;;;;;23.31;54.80;100407.50;4986645;28;106769;-63
2021/09/14 07:42:02;;;;;;;10.23;6.15;;;;;;;23.40;54.56;100403.31;4987986;28;106215;-63
2021/09/14 07:44:27;;;;;;;6.82;4.30;;;;;;;23.44;53.72;100404.44;4989173;28;106288;-64
2021/09/14 07:46:52;;;;;;;7.57;4.30;;;;;;;23.56;54.09;100406.22;4988531;28;106315;-64
2021/09/14 07:49:18;;;;;;;6.30;4.75;;;;;;;23.84;53.88;100410.66;4988503;28;106256;-64
2021/09/14 07:51:43;;;;;;;5.10;4.00;;;;;;;24.13;52.97;100418.66;4988902;28;105823;-64
2021/09/14 07:54:09;;;;;;;9.07;4.53;;;;;;;24.55;52.59;100419.88;4989601;28;105972;-64
2021/09/14 07:56:34;;;;;;;6.05;4.15;;;;;;;24.93;51.74;100424.34;4988701;28;106479;-63
2021/09/14 07:58:59;;;;;;;5.93;3.97;;;;;;;25.49;51.17;100404.84;4988687;28;106084;-62
2021/09/14 08:01:25;;;;;;;6.43;3.90;;;;;;;25.97;49.88;100410.22;4988616;28;106019;-63
2021/09/14 08:03:50;;;;;;;6.95;4.60;;;;;;;26.46;49.03;100411.75;4989894;28;106031;-64
2021/09/14 08:06:15;;;;;;;5.50;3.90;;;;;;;26.76;47.68;100414.78;4989162;28;106141;-64
2021/09/14 08:08:41;;;;;;;7.82;4.13;;;;;;;27.00;46.82;100410.38;4989045;28;106450;-65
2021/09/14 08:11:06;;;;;;;7.10;4.32;;;;;;;27.00;45.82;100404.94;4988397;28;106233;-64
2021/09/14 08:13:31;;;;;;;6.25;4.10;;;;;;;26.89;44.98;100413.41;4989904;28;106174;-65
2021/09/14 08:15:57;;;;;;;6.93;4.15;;;;;;;26.81;44.58;100417.53;4989172;28;106139;-65
2021/09/14 08:18:22;;;;;;;7.20;3.95;;;;;;;27.02;44.75;100419.16;4988449;28;106558;-65
2021/09/14 08:20:47;;;;;;;6.13;3.60;;;;;;;27.42;44.24;100418.53;4988149;28;106041;-64
2021/09/14 08:23:12;;;;;;;7.80;3.92;;;;;;;28.01;43.91;100417.00;4989120;28;106070;-64
2021/09/14 08:25:38;;;;;;;8.43;5.25;;;;;;;28.42;42.57;100427.72;4988480;28;106272;-65
2021/09/14 08:28:04;;;;;;;5.28;3.58;;;;;;;28.69;41.55;100420.94;4987296;28;105972;-65
2021/09/14 08:30:30;;;;;;;12.38;8.02;;;;;;;28.83;40.27;100421.13;4987663;28;106541;-65
2021/09/14 08:32:55;;;;;;;11.23;7.50;;;;;;;28.86;40.08;100426.84;4989093;28;106194;-65
2021/09/14 08:35:20;;;;;;;9.05;4.80;;;;;;;29.16;39.69;100424.94;4988003;28;106097;-64
2021/09/14 08:37:46;;;;;;;5.85;4.50;;;;;;;30.38;39.14;100420.19;4987801;28;106560;-64
2021/09/14 08:40:12;;;;;;;7.35;3.35;;;;;;;31.94;36.30;100422.66;4987210;28;106063;-63
2021/09/14 08:42:37;;;;;;;6.80;3.33;;;;;;;33.33;33.96;100424.84;4987721;28;105942;-64
2021/09/14 08:45:09;;;;;;;7.88;5.95;;;;;;;34.44;32.19;100422.19;4986877;28;106196;-63
2021/09/14 08:47:38;;;;;;;6.28;2.80;;;;;;;36.21;29.66;100425.59;4986995;28;106130;-64
2021/09/14 08:50:08;;;;;;;9.05;3.28;;;;;;;37.94;26.79;100427.94;4986780;28;105954;-66
2021/09/14 08:52:34;;;;;;;6.65;3.35;;;;;;;38.63;25.68;100421.56;4988002;28;106008;-66
2021/09/14 08:55:00;;;;;;;11.13;2.90;;;;;;;38.55;25.49;100431.69;4987184;28;106263;-66
2021/09/14 08:57:25;;;;;;;6.55;2.88;;;;;;;38.17;25.06;100421.84;4985996;28;106036;-64
2021/09/14 08:59:54;;;;;;;9.68;3.03;;;;;;;39.00;24.98;100422.19;4986547;28;105913;-66
2021/09/14 09:02:21;;;;;;;;;;;;;;;40.65;22.83;100427.13;4987731;28;106126;-64
2021/09/14 09:04:58;;;;;;;5.63;2.65;;;;;;;41.75;21.57;100417.41;4986705;28;106311;-67
2021/09/14 09:07:33;;;;;;;3.67;2.42;;;;;;;43.03;20.05;100424.88;4986558;28;106410;-67
2021/09/14 09:10:09;;;;;;;5.93;2.22;;;;;;;44.39;18.51;100420.56;4985179;28;107332;-64
2021/09/14 09:12:39;;;;;;;4.63;2.30;;;;;;;45.71;17.20;100418.97;4987918;28;106361;-66
2021/09/14 09:15:05;;;;;;;4.30;2.30;;;;;;;46.74;16.14;100427.41;4986890;28;106075;-66
2021/09/14 09:17:30;;;;;;;4.63;2.25;;;;;;;47.25;15.38;100413.69;4985785;28;105847;-65
2021/09/14 09:19:58;;;;;;;5.78;2.17;;;;;;;47.91;15.15;100414.63;4987410;28;106394;-68
2021/09/14 09:22:25;;;;;;;6.30;2.55;;;;;;;48.32;14.49;100414.91;4988692;28;105988;-66
2021/09/14 09:24:52;;;;;;;3.60;2.15;;;;;;;48.43;14.36;100412.72;4990859;28;106187;-66
2021/09/14 09:27:21;;;;;;;5.13;2.60;;;;;;;49.05;13.81;100415.41;4990431;28;106437;-66
2021/09/14 09:30:18;;;;;;;6.43;2.38;;;;;;;49.63;13.17;100413.16;4995619;28;105862;-66
2021/09/14 09:32:45;;;;;;;5.72;2.20;;;;;;;49.68;13.21;100409.03;4996884;28;106404;-68
2021/09/14 09:35:11;;;;;;;7.65;2.63;;;;;;;48.29;13.73;100417.34;4997430;28;106970;-66
2021/09/14 09:37:37;;;;;;;7.88;2.47;;;;;;;48.22;13.94;100399.72;5002556;28;107410;-67
2021/09/14 09:40:02;;;;;;;4.53;2.22;;;;;;;48.77;13.44;100406.97;4994379;28;106437;-66
2021/09/14 09:42:31;;;;;;;4.85;2.08;;;;;;;47.81;14.04;100409.09;4997591;28;105866;-66
2021/09/14 09:44:58;;;;;;;6.85;2.50;;;;;;;47.45;14.20;100407.47;4988371;28;106261;-65
2021/09/14 09:47:24;;;;;;;5.10;2.38;;;;;;;47.71;13.84;100402.34;4989591;28;106720;-66
2021/09/14 09:49:50;;;;;;;5.90;2.53;;;;;;;49.15;12.76;100396.69;4990616;28;105836;-66
2021/09/14 09:52:17;;;;;;;4.72;2.20;;;;;;;49.82;12.08;100398.66;4990980;28;105981;-66
2021/09/14 09:54:45;;;;;;;4.05;2.60;;;;;;;50.86;11.42;100399.09;4989943;28;106253;-65
2021/09/14 09:57:11;;;;;;;5.53;2.50;;;;;;;51.11;10.55;100400.50;4990087;28;105813;-66
2021/09/14 09:59:36;;;;;;;3.08;2.05;;;;;;;52.26;10.10;100396.41;4989874;28;106064;-66
2021/09/14 10:02:28;;;;;;;3.83;1.70;;;;;;;52.93;9.97;100397.47;4991027;28;105804;-67
2021/09/14 10:04:57;;;;;;;3.88;2.10;;;;;;;53.19;9.50;100383.19;4990371;28;105912;-66
2021/09/14 10:07:28;;;;;;;6.57;1.92;;;;;;;54.01;9.01;100387.84;4990019;28;106597;-67
2021/09/14 10:09:56;;;;;;;7.40;2.28;;;;;;;54.88;8.66;100381.50;4989870;28;106199;-66
2021/09/14 10:12:24;;;;;;;3.55;2.05;;;;;;;54.99;8.33;100384.66;4990419;28;106125;-66
2021/09/14 10:15:09;;;;;;;3.10;1.80;;;;;;;55.07;8.16;100382.31;4989866;28;106232;-66
2021/09/14 10:17:52;;;;;;;11.80;10.60;;;;;;;55.15;7.70;100379.91;4989839;28;106465;-67
2021/09/14 10:20:21;;;;;;;3.38;2.00;;;;;;;55.58;7.53;100380.84;4989327;28;107273;-67
2021/09/14 10:22:59;;;;;;;3.78;2.08;;;;;;;55.71;7.35;100381.47;4991195;28;105835;-67
2021/09/14 10:25:24;;;;;;;3.13;1.80;;;;;;;55.93;7.26;100386.94;4989418;28;106206;-66
2021/09/14 10:27:49;;;;;;;8.55;2.42;;;;;;;56.25;7.44;100372.34;4989353;28;106555;-68
2021/09/14 10:30:23;;;;;;;5.43;2.40;;;;;;;56.72;6.78;100367.16;4989249;28;106008;-69
2021/09/14 10:32:49;;;;;;;6.47;2.50;;;;;;;57.05;7.05;100369.13;4989688;28;106158;-67
2021/09/14 10:35:27;;;;;;;4.85;2.30;;;;;;;57.42;7.03;100369.59;4989295;28;106329;-69
2021/09/14 10:38:03;;;;;;;8.65;2.50;;;;;;;57.14;6.37;100365.41;4989173;28;106773;-66
2021/09/14 10:40:37;;;;;;;6.10;2.05;;;;;;;57.51;6.74;100365.03;4989715;28;106231;-64
2021/09/14 10:43:02;;;;;;;6.13;2.28;;;;;;;56.70;6.48;100370.50;4990167;28;105874;-66
2021/09/14 10:45:28;;;;;;;6.00;2.28;;;;;;;54.25;7.89;100356.78;4989740;28;106754;-69
2021/09/14 10:47:53;;;;;;;4.30;2.08;;;;;;;53.34;8.60;100355.78;4989749;28;106805;-67
2021/09/14 10:50:28;;;;;;;4.40;2.45;;;;;;;54.82;7.55;100352.81;4989478;28;106051;-68
2021/09/14 10:53:02;;;;;;;3.13;1.80;;;;;;;56.15;7.26;100368.75;4989974;28;106008;-66
2021/09/14 10:55:29;;;;;;;4.38;2.10;;;;;;;56.53;6.79;100357.91;4989463;28;105794;-70
2021/09/14 10:57:59;;;;;;;5.67;2.10;;;;;;;56.56;6.58;100357.72;4989066;28;106433;-68
2021/09/14 11:00:34;;;;;;;3.97;1.80;;;;;;;56.42;6.48;100359.25;4989234;28;106031;-68
2021/09/14 11:03:06;;;;;;;4.00;1.77;;;;;;;55.87;6.71;100353.78;4990251;28;106010;-67
2021/09/14 11:05:36;;;;;;;3.65;1.55;;;;;;;56.32;7.09;100349.13;4989533;28;106251;-66
2021/09/14 11:08:10;;;;;;;3.85;1.90;;;;;;;57.34;5.95;100351.22;4989144;28;106046;-65
2021/09/14 11:10:39;;;;;;;6.75;2.50;;;;;;;57.79;5.65;100349.13;4988841;28;105813;-66
2021/09/14 11:13:04;;;;;;;7.65;4.78;;;;;;;55.90;6.82;100344.25;4989438;28;106219;-66
2021/09/14 11:15:30;;;;;;;6.80;2.53;;;;;;;54.08;8.12;100349.75;4989246;28;106334;-67
2021/09/14 11:17:55;;;;;;;4.35;2.30;;;;;;;54.15;7.62;100334.44;4989299;28;106129;-66
2021/09/14 11:20:25;;;;;;;6.40;2.25;;;;;;;55.60;7.41;100341.16;4988534;28;106306;-66
2021/09/14 11:22:52;;;;;;;3.25;1.70;;;;;;;56.49;6.91;100338.09;4989206;28;105952;-68
2021/09/14 11:25:26;;;;;;;5.82;2.33;;;;;;;56.87;6.55;100330.81;4988701;28;106366;-66
2021/09/14 11:28:09;;;;;;;7.57;2.58;;;;;;;57.29;5.86;100320.41;4987618;28;106425;-66
2021/09/14 11:30:35;;;;;;;4.72;2.30;;;;;;;55.92;7.17;100328.19;4984693;28;106174;-66
2021/09/14 11:33:02;;;;;;;3.65;2.15;;;;;;;56.77;6.79;100324.34;4988343;28;106079;-69
2021/09/14 11:35:29;;;;;;;3.10;2.13;;;;;;;57.24;5.64;100324.75;4987433;28;106228;-67
2021/09/14 11:38:00;;;;;;;7.53;2.45;;;;;;;57.83;5.89;100328.06;4987450;28;106948;-66
2021/09/14 11:40:26;;;;;;;6.28;2.40;;;;;;;58.26;5.95;100323.50;4986850;28;106349;-66
2021/09/14 11:43:16;;;;;;;3.17;2.20;;;;;;;58.09;5.35;100314.66;4987169;28;106052;-65
2021/09/14 11:45:41;;;;;;;6.35;2.85;;;;;;;56.67;6.40;100320.00;4986479;28;106234;-67
2021/09/14 11:48:15;;;;;;;6.40;2.47;;;;;;;52.34;7.86;100306.84;4986736;28;106723;-66
2021/09/14 11:50:41;;;;;;;4.30;2.50;;;;;;;48.68;10.13;100302.16;4987204;28;106713;-66
2021/09/14 11:53:22;;;;;;;6.68;2.67;;;;;;;44.97;12.48;100305.44;4987674;28;105971;-66
2021/09/14 11:55:50;;;;;;;6.20;2.40;;;;;;;46.68;11.99;100307.88;4987143;28;106015;-67
2021/09/14 11:58:28;;;;;;;4.43;2.80;;;;;;;49.65;10.02;100299.50;4986467;28;106694;-65
2021/09/14 12:00:55;;;;;;;6.32;2.75;;;;;;;49.66;9.83;100303.94;4986913;28;106084;-65
2021/09/14 12:03:22;;;;;;;4.22;2.47;;;;;;;50.87;9.32;100294.97;4987911;28;106081;-66
2021/09/14 12:05:56;;;;;;;4.78;2.30;;;;;;;52.69;8.46;100298.34;4986621;28;106313;-66
2021/09/14 12:08:34;;;;;;;5.07;2.65;;;;;;;52.75;8.29;100296.53;4986523;28;105951;-68
2021/09/14 12:11:01;;;;;;;5.05;2.38;;;;;;;53.61;7.75;100294.63;4986281;28;106235;-66
2021/09/14 12:13:27;;;;;;;4.90;2.40;;;;;;;54.58;7.27;100293.50;4986811;28;106232;-66
2021/09/14 12:16:05;;;;;;;7.40;2.80;;;;;;;54.58;7.07;100287.03;4986773;28;106475;-69
2021/09/14 12:18:30;;;;;;;3.05;2.38;;;;;;;54.26;7.24;100275.72;4969913;28;106240;-66
2021/09/14 12:20:55;;;;;;;3.15;2.03;;;;;;;54.90;7.11;100293.38;4970726;28;107178;-66
2021/09/14 12:23:21;;;;;;;8.23;2.00;;;;;;;54.84;7.17;100286.72;4969122;28;105827;-67
2021/09/14 12:25:46;;;;;;;7.32;2.80;;;;;;;55.22;6.64;100282.56;4967522;28;106294;-66
2021/09/14 12:28:11;;;;;;;5.32;2.45;;;;;;;55.67;6.65;100288.63;4967898;28;105927;-65
2021/09/14 12:30:37;;;;;;;3.50;2.30;;;;;;;54.22;7.02;100277.94;4966478;28;106152;-65
2021/09/14 12:33:02;;;;;;;4.33;2.37;;;;;;;54.68;6.79;100280.03;4968846;28;105879;-65
2021/09/14 12:35:28;;;;;;;5.38;2.70;;;;;;;54.53;7.28;100273.41;4966761;28;106251;-65
2021/09/14 12:37:53;;;;;;;5.03;2.63;;;;;;;54.70;6.76;100271.81;4979359;28;106532;-65
2021/09/14 12:40:19;;;;;;;3.72;2.33;;;;;;;51.93;7.89;100266.75;4984828;28;106515;-65
2021/09/14 12:42:44;;;;;;;4.75;2.80;;;;;;;48.07;10.52;100258.72;4986077;28;106619;-65
2021/09/14 12:45:10;;;;;;;8.55;3.30;;;;;;;45.07;12.46;100254.88;4985678;28;106648;-64
2021/09/14 12:47:35;;;;;;;5.22;3.17;;;;;;;42.96;13.89;100256.72;4985745;28;106384;-65
2021/09/14 12:50:00;;;;;;;6.10;2.92;;;;;;;41.73;15.03;100249.97;4986196;28;106343;-65
2021/09/14 12:52:27;;;;;;;6.85;2.92;;;;;;;41.75;15.56;100247.59;4988699;28;106332;-65
2021/09/14 12:54:52;;;;;;;4.55;3.08;;;;;;;43.98;13.95;100247.63;4987710;28;105920;-65
2021/09/14 12:57:18;;;;;;;4.20;2.60;;;;;;;44.51;13.23;100250.88;4987506;28;106692;-66
2021/09/14 12:59:43;;;;;;;9.45;3.00;;;;;;;43.68;14.04;100245.13;4990806;28;106195;-65
2021/09/14 13:40:58;;;;;;;6.65;3.70;;;;;;;33.65;22.30;100221.22;5020865;28;105993;-68
2021/09/14 13:43:38;;;;;;;5.90;3.78;;;;;;;33.06;23.04;100222.44;5015665;27;105985;-66
2021/09/14 13:46:11;;;;;;;5.82;3.97;;;;;;;32.46;24.21;100228.53;5019980;28;106061;-65
2021/09/14 13:48:41;;;;;;;6.97;4.03;;;;;;;31.99;25.16;100220.63;5007743;27;107711;-64
2021/09/14 13:51:07;;;;;;;6.22;3.55;;;;;;;31.64;25.82;100218.41;5016688;28;106129;-67
2021/09/14 13:53:33;;;;;;;4.57;3.80;;;;;;;31.58;26.22;100219.66;5009884;28;106173;-62
2021/09/14 13:55:58;;;;;;;5.82;3.70;;;;;;;31.34;26.26;100215.25;5018968;28;106439;-66
2021/09/14 13:58:24;;;;;;;5.05;3.80;;;;;;;31.17;26.75;100210.38;5006014;27;106105;-62
2021/09/14 14:00:49;;;;;;;5.57;3.78;;;;;;;31.00;27.18;100216.50;5008437;28;105996;-62
2021/09/14 14:03:15;;;;;;;7.40;3.45;;;;;;;30.97;27.19;100217.09;5017580;28;106010;-61
2021/09/14 14:05:40;;;;;;;6.30;3.72;;;;;;;30.79;27.55;100221.56;5004800;28;106132;-67
2021/09/14 14:08:05;;;;;;;5.32;3.72;;;;;;;30.62;27.80;100210.38;5020097;28;106126;-66
2021/09/14 14:10:31;;;;;;;9.77;4.15;;;;;;;30.49;27.97;100212.81;5007756;27;105692;-64
2021/09/14 14:12:56;;;;;;;7.88;4.43;;;;;;;30.31;28.22;100214.47;5019302;27;105912;-64
2021/09/14 14:15:22;;;;;;;8.52;4.45;;;;;;;30.30;28.42;100210.09;5013347;28;105795;-66
2021/09/14 14:17:47;;;;;;;8.27;3.80;;;;;;;30.44;28.67;100214.81;5011255;27;105891;-66
2021/09/14 14:20:12;;;;;;;9.98;4.40;;;;;;;30.55;28.49;100210.78;5020671;28;105816;-65
2021/09/14 14:22:38;;;;;;;11.27;6.05;;;;;;;30.47;28.40;100204.06;5008204;27;105884;-65
2021/09/14 14:25:05;;;;;;;5.78;4.15;;;;;;;30.33;28.58;100208.69;5017886;27;106505;-65
2021/09/14 14:27:30;;;;;;;6.78;4.00;;;;;;;30.32;28.87;100204.28;5014306;28;106107;-67
2021/09/14 14:29:55;;;;;;;6.97;4.28;;;;;;;30.32;28.70;100207.88;5010204;27;106108;-64
2021/09/14 14:32:21;;;;;;;6.88;4.25;;;;;;;30.33;28.72;100204.03;5021528;28;105965;-65
2021/09/14 14:34:46;;;;;;;7.00;3.75;;;;;;;30.31;29.15;100203.50;5008515;28;106091;-65
2021/09/14 14:37:11;;;;;;;5.80;3.95;;;;;;;30.24;28.96;100202.25;5016352;27;106083;-62
2021/09/14 14:39:37;;;;;;;8.65;3.90;;;;;;;30.05;29.05;100201.19;5015181;28;106222;-63
2021/09/14 14:42:02;;;;;;;5.55;3.92;;;;;;;29.97;29.31;100204.63;5010076;27;106088;-63
2021/09/14 14:44:27;;;;;;;5.30;4.00;;;;;;;29.92;29.36;100207.44;5020572;28;105987;-64
2021/09/14 14:46:53;;;;;;;7.45;4.07;;;;;;;29.77;29.82;100199.44;5009200;28;106177;-64
2021/09/14 14:49:18;;;;;;;7.25;4.07;;;;;;;29.63;29.98;100197.44;5023885;27;106015;-63
2021/09/14 14:51:43;;;;;;;6.85;4.28;;;;;;;29.55;30.35;100203.63;5010824;27;106488;-62
2021/09/14 14:54:09;;;;;;;7.05;4.72;;;;;;;29.46;30.12;100198.00;4991025;28;106249;-64
2021/09/14 14:56:35;;;;;;;6.35;4.80;;;;;;;29.32;30.35;100194.34;4990691;28;106322;-63
2021/09/14 14:59:00;;;;;;;6.80;4.53;;;;;;;29.26;30.88;100196.34;4990057;28;106496;-64
2021/09/14 15:01:25;;;;;;;6.50;4.00;;;;;;;29.14;30.70;100191.28;4991952;28;105818;-64
2021/09/14 15:03:51;;;;;;;6.40;4.32;;;;;;;28.96;31.60;100200.28;4990909;28;106324;-63
2021/09/14 15:06:16;;;;;;;4.60;3.95;;;;;;;28.74;31.57;100201.63;4990517;28;106468;-64
2021/09/14 15:08:41;;;;;;;8.48;4.10;;;;;;;28.56;31.67;100194.97;4990461;28;105971;-63
2021/09/14 15:11:07;;;;;;;8.65;3.95;;;;;;;28.40;31.91;100193.50;4990822;28;105979;-62
2021/09/14 15:13:32;;;;;;;7.78;4.38;;;;;;;28.23;31.89;100199.41;4990622;28;106285;-66
2021/09/14 15:15:57;;;;;;;5.93;4.22;;;;;;;27.97;32.38;100189.47;4990123;28;106086;-65
2021/09/14 15:18:24;;;;;;;7.25;4.22;;;;;;;27.74;32.54;100193.75;4990517;28;105837;-64
2021/09/14 15:20:50;;;;;;;8.02;4.78;;;;;;;27.50;33.04;100193.66;4991143;28;105979;-63
2021/09/14 15:23:16;;;;;;;7.97;4.45;;;;;;;27.35;33.56;100194.53;4990438;28;106040;-62
2021/09/14 15:25:42;;;;;;;11.80;4.60;;;;;;;27.22;33.70;100193.25;4990411;28;106408;-61
2021/09/14 15:28:07;;;;;;;6.57;4.20;;;;;;;27.11;34.21;100195.22;4990499;28;106146;-62
2021/09/14 15:30:55;;;;;;;5.95;4.32;;;;;;;26.98;34.45;100195.81;4991419;28;106011;-64
2021/09/14 15:33:23;;;;;;;6.25;4.43;;;;;;;26.84;34.67;100190.94;4990435;28;106241;-64
2021/09/14 15:35:50;;;;;;;5.15;4.38;;;;;;;26.66;34.83;100192.34;4989335;28;106830;-64
2021/09/14 15:38:29;;;;;;;5.38;4.13;;;;;;;26.52;35.48;100188.56;4988896;28;105848;-63
2021/09/14 15:40:57;;;;;;;10.53;4.80;;;;;;;26.36;35.56;100187.78;4990821;28;106271;-60
2021/09/14 15:43:24;;;;;;;7.30;4.13;;;;;;;26.20;36.26;100192.44;4989768;28;105781;-62
2021/09/14 15:45:50;;;;;;;10.73;4.75;;;;;;;26.01;36.12;100187.53;4989874;28;106302;-61
2021/09/14 15:48:17;;;;;;;9.20;3.95;;;;;;;25.87;36.50;100191.88;4989126;28;106056;-62
2021/09/14 15:50:44;;;;;;;9.52;4.28;;;;;;;25.74;36.62;100197.84;4990456;28;105884;-61
2021/09/14 15:53:09;;;;;;;7.28;4.10;;;;;;;25.60;36.82;100192.97;4989389;28;106677;-62
2021/09/14 15:55:35;;;;;;;7.95;4.60;;;;;;;25.48;37.17;100190.47;4989155;28;106647;-62
2021/09/14 15:58:02;;;;;;;7.38;4.25;;;;;;;25.29;37.40;100192.84;4989254;28;105917;-63
2021/09/14 16:00:28;;;;;;;6.53;4.13;;;;;;;25.12;38.04;100192.25;4990278;28;106057;-62
2021/09/14 16:02:55;;;;;;;7.70;4.97;;;;;;;24.95;38.11;100184.28;4987884;28;106381;-63
2021/09/14 16:05:20;;;;;;;9.43;7.00;;;;;;;24.82;38.43;100196.47;4989289;28;105929;-62
2021/09/14 16:07:45;;;;;;;8.23;4.53;;;;;;;24.69;38.94;100188.78;4989294;28;105947;-61
2021/09/14 16:10:11;;;;;;;8.05;4.22;;;;;;;24.56;39.30;100190.06;4990060;28;106684;-62
2021/09/14 16:12:36;;;;;;;11.65;4.68;;;;;;;24.45;39.36;100181.84;4989560;28;106164;-62
2021/09/14 16:15:02;;;;;;;9.65;5.50;;;;;;;24.32;39.86;100185.81;4988664;28;105921;-62
2021/09/14 16:17:28;;;;;;;5.47;3.95;;;;;;;24.18;40.12;100190.09;4989493;28;106402;-62
2021/09/14 16:19:54;;;;;;;5.22;4.10;;;;;;;24.04;40.39;100192.41;4987475;28;107506;-60
2021/09/14 16:22:20;;;;;;;7.70;4.38;;;;;;;23.92;40.75;100192.59;4986117;28;105961;-60
2021/09/14 16:24:45;;;;;;;10.57;3.90;;;;;;;23.84;41.12;100193.06;4987091;28;106095;-61
2021/09/14 16:27:10;;;;;;;8.07;4.43;;;;;;;23.74;41.54;100190.22;4986421;28;106458;-61
2021/09/14 16:29:36;;;;;;;6.95;4.90;;;;;;;23.60;41.91;100196.06;4987770;28;106029;-63
2021/09/14 16:32:01;;;;;;;6.35;4.03;;;;;;;23.48;42.15;100198.13;4986916;28;106265;-65